sensor_id;sensor_type;location;lat;lon;timestamp;temperature;humidity
7399;DHT22;3740;50.700;7.184;2022-08-30T00:01:57;19.80;97.60
7399;DHT22;3740;50.700;7.184;2022-08-30T00:04:23;19.70;98.00
7399;DHT22;3740;50.700;7.184;2022-08-30T00:06:48;19.70;98.20
7399;DHT22;3740;50.700;7.184;2022-08-30T00:09:14;19.60;98.50
7399;DHT22;3740;50.700;7.184;2022-08-30T00:11:40;19.50;98.90
7399;DHT22;3740;50.700;7.184;2022-08-30T00:14:05;19.50;99.30
7399;DHT22;3740;50.700;7.184;2022-08-30T00:16:31;19.50;99.00
7399;DHT22;3740;50.700;7.184;2022-08-30T00:19:00;19.40;98.70
7399;DHT22;3740;50.700;7.184;2022-08-30T00:21:29;19.40;98.70
7399;DHT22;3740;50.700;7.184;2022-08-30T00:23:55;19.30;99.20
7399;DHT22;3740;50.700;7.184;2022-08-30T00:26:27;19.30;99.00
7399;DHT22;3740;50.700;7.184;2022-08-30T00:28:52;19.20;99.30
7399;DHT22;3740;50.700;7.184;2022-08-30T00:31:19;19.20;99.60
7399;DHT22;3740;50.700;7.184;2022-08-30T00:33:45;19.10;99.90
7399;DHT22;3740;50.700;7.184;2022-08-30T00:36:10;19.10;99.80
7399;DHT22;3740;50.700;7.184;2022-08-30T00:38:36;19.00;99.70
7399;DHT22;3740;50.700;7.184;2022-08-30T00:41:02;19.10;99.40
7399;DHT22;3740;50.700;7.184;2022-08-30T00:43:32;18.90;99.40
7399;DHT22;3740;50.700;7.184;2022-08-30T00:46:00;18.90;99.00
7399;DHT22;3740;50.700;7.184;2022-08-30T00:48:29;18.80;99.60
7399;DHT22;3740;50.700;7.184;2022-08-30T00:51:03;18.80;99.70
7399;DHT22;3740;50.700;7.184;2022-08-30T00:53:37;18.80;99.90
7399;DHT22;3740;50.700;7.184;2022-08-30T00:56:04;18.80;99.70
7399;DHT22;3740;50.700;7.184;2022-08-30T00:58:34;18.80;99.50
7399;DHT22;3740;50.700;7.184;2022-08-30T01:01:06;18.80;99.70
7399;DHT22;3740;50.700;7.184;2022-08-30T01:03:34;18.70;99.80
7399;DHT22;3740;50.700;7.184;2022-08-30T01:06:00;18.70;99.50
7399;DHT22;3740;50.700;7.184;2022-08-30T01:08:30;18.70;99.50
7399;DHT22;3740;50.700;7.184;2022-08-30T01:10:56;18.60;99.60
7399;DHT22;3740;50.700;7.184;2022-08-30T01:13:27;18.60;99.80
7399;DHT22;3740;50.700;7.184;2022-08-30T01:15:53;18.60;99.90
7399;DHT22;3740;50.700;7.184;2022-08-30T01:18:19;18.60;99.90
7399;DHT22;3740;50.700;7.184;2022-08-30T01:23:51;18.50;99.90
7399;DHT22;3740;50.700;7.184;2022-08-30T01:26:26;18.50;99.90
7399;DHT22;3740;50.700;7.184;2022-08-30T01:29:03;18.40;99.90
7399;DHT22;3740;50.700;7.184;2022-08-30T01:31:29;18.40;99.90
7399;DHT22;3740;50.700;7.184;2022-08-30T01:33:55;18.40;99.90
7399;DHT22;3740;50.700;7.184;2022-08-30T01:36:21;18.30;99.90
7399;DHT22;3740;50.700;7.184;2022-08-30T01:38:53;18.30;99.90
7399;DHT22;3740;50.700;7.184;2022-08-30T01:41:28;18.30;99.90
7399;DHT22;3740;50.700;7.184;2022-08-30T01:43:56;18.30;99.90
7399;DHT22;3740;50.700;7.184;2022-08-30T01:46:25;18.30;99.90
7399;DHT22;3740;50.700;7.184;2022-08-30T01:48:52;18.30;99.90
7399;DHT22;3740;50.700;7.184;2022-08-30T01:51:19;18.30;99.90
7399;DHT22;3740;50.700;7.184;2022-08-30T01:53:47;18.30;99.90
7399;DHT22;3740;50.700;7.184;2022-08-30T01:56:13;18.30;99.90
7399;DHT22;3740;50.700;7.184;2022-08-30T01:58:40;18.30;99.90
7399;DHT22;3740;50.700;7.184;2022-08-30T02:01:11;18.40;99.90
7399;DHT22;3740;50.700;7.184;2022-08-30T02:03:39;18.30;99.90
7399;DHT22;3740;50.700;7.184;2022-08-30T02:06:08;18.40;99.90
7399;DHT22;3740;50.700;7.184;2022-08-30T02:08:36;18.30;99.90
7399;DHT22;3740;50.700;7.184;2022-08-30T02:11:02;18.20;99.90
7399;DHT22;3740;50.700;7.184;2022-08-30T02:13:28;18.20;99.90
7399;DHT22;3740;50.700;7.184;2022-08-30T02:15:55;18.20;99.90
7399;DHT22;3740;50.700;7.184;2022-08-30T02:18:22;18.20;99.90
7399;DHT22;3740;50.700;7.184;2022-08-30T02:20:48;18.20;99.90
7399;DHT22;3740;50.700;7.184;2022-08-30T02:23:13;18.20;99.90
7399;DHT22;3740;50.700;7.184;2022-08-30T02:25:39;18.10;99.90
7399;DHT22;3740;50.700;7.184;2022-08-30T02:28:05;18.10;99.90
7399;DHT22;3740;50.700;7.184;2022-08-30T02:30:30;18.10;99.90
7399;DHT22;3740;50.700;7.184;2022-08-30T02:32:56;18.10;99.90
7399;DHT22;3740;50.700;7.184;2022-08-30T02:35:22;18.10;99.90
7399;DHT22;3740;50.700;7.184;2022-08-30T02:37:48;18.10;99.90
7399;DHT22;3740;50.700;7.184;2022-08-30T02:40:13;18.20;99.90
7399;DHT22;3740;50.700;7.184;2022-08-30T02:42:39;18.20;99.90
7399;DHT22;3740;50.700;7.184;2022-08-30T02:45:06;18.20;99.90
7399;DHT22;3740;50.700;7.184;2022-08-30T02:47:33;18.10;99.90
7399;DHT22;3740;50.700;7.184;2022-08-30T02:49:58;18.10;99.90
7399;DHT22;3740;50.700;7.184;2022-08-30T02:52:24;18.10;99.90
7399;DHT22;3740;50.700;7.184;2022-08-30T02:54:49;18.10;99.90
7399;DHT22;3740;50.700;7.184;2022-08-30T02:57:15;18.20;99.90
7399;DHT22;3740;50.700;7.184;2022-08-30T02:59:41;18.20;99.90
7399;DHT22;3740;50.700;7.184;2022-08-30T03:02:10;18.20;99.90
7399;DHT22;3740;50.700;7.184;2022-08-30T03:04:36;18.10;99.90
7399;DHT22;3740;50.700;7.184;2022-08-30T03:07:05;18.10;99.90
7399;DHT22;3740;50.700;7.184;2022-08-30T03:09:30;18.00;99.90
7399;DHT22;3740;50.700;7.184;2022-08-30T03:11:57;18.00;99.90
7399;DHT22;3740;50.700;7.184;2022-08-30T03:14:22;17.90;99.90
7399;DHT22;3740;50.700;7.184;2022-08-30T03:16:48;17.80;99.90
7399;DHT22;3740;50.700;7.184;2022-08-30T03:19:14;17.80;99.90
7399;DHT22;3740;50.700;7.184;2022-08-30T03:21:39;17.80;99.90
7399;DHT22;3740;50.700;7.184;2022-08-30T03:24:05;17.80;99.90
7399;DHT22;3740;50.700;7.184;2022-08-30T03:26:31;17.80;99.90
7399;DHT22;3740;50.700;7.184;2022-08-30T03:28:56;17.80;99.90
7399;DHT22;3740;50.700;7.184;2022-08-30T03:31:23;17.80;99.90
7399;DHT22;3740;50.700;7.184;2022-08-30T03:33:49;17.80;99.90
7399;DHT22;3740;50.700;7.184;2022-08-30T03:36:15;17.80;99.90
7399;DHT22;3740;50.700;7.184;2022-08-30T03:38:41;17.80;99.90
7399;DHT22;3740;50.700;7.184;2022-08-30T03:41:07;17.80;99.90
7399;DHT22;3740;50.700;7.184;2022-08-30T03:43:32;17.80;99.90
7399;DHT22;3740;50.700;7.184;2022-08-30T03:46:02;17.70;99.90
7399;DHT22;3740;50.700;7.184;2022-08-30T03:48:29;17.70;99.90
7399;DHT22;3740;50.700;7.184;2022-08-30T03:50:55;17.70;99.90
7399;DHT22;3740;50.700;7.184;2022-08-30T03:53:21;17.70;99.90
7399;DHT22;3740;50.700;7.184;2022-08-30T03:55:47;17.70;99.90
7399;DHT22;3740;50.700;7.184;2022-08-30T03:58:13;17.60;99.90
7399;DHT22;3740;50.700;7.184;2022-08-30T04:00:38;17.60;99.90
7399;DHT22;3740;50.700;7.184;2022-08-30T04:03:04;17.60;99.90
7399;DHT22;3740;50.700;7.184;2022-08-30T04:05:30;17.50;99.90
7399;DHT22;3740;50.700;7.184;2022-08-30T04:07:56;17.50;99.90
7399;DHT22;3740;50.700;7.184;2022-08-30T04:10:22;17.50;99.90
7399;DHT22;3740;50.700;7.184;2022-08-30T04:12:48;17.40;99.90
7399;DHT22;3740;50.700;7.184;2022-08-30T04:15:17;17.40;99.90
7399;DHT22;3740;50.700;7.184;2022-08-30T04:17:43;17.40;99.90
7399;DHT22;3740;50.700;7.184;2022-08-30T04:20:08;17.30;99.90
7399;DHT22;3740;50.700;7.184;2022-08-30T04:22:38;17.30;99.90
7399;DHT22;3740;50.700;7.184;2022-08-30T04:25:05;17.30;99.90
7399;DHT22;3740;50.700;7.184;2022-08-30T04:27:30;17.30;99.90
7399;DHT22;3740;50.700;7.184;2022-08-30T04:29:58;17.30;99.90
7399;DHT22;3740;50.700;7.184;2022-08-30T04:32:24;17.30;99.90
7399;DHT22;3740;50.700;7.184;2022-08-30T04:34:55;17.30;99.90
7399;DHT22;3740;50.700;7.184;2022-08-30T04:37:21;17.30;99.90
7399;DHT22;3740;50.700;7.184;2022-08-30T04:39:46;17.30;99.90
7399;DHT22;3740;50.700;7.184;2022-08-30T04:42:13;17.30;99.90
7399;DHT22;3740;50.700;7.184;2022-08-30T04:44:40;17.40;99.90
7399;DHT22;3740;50.700;7.184;2022-08-30T04:47:06;17.30;99.90
7399;DHT22;3740;50.700;7.184;2022-08-30T04:49:35;17.40;99.90
7399;DHT22;3740;50.700;7.184;2022-08-30T04:52:00;17.40;99.90
7399;DHT22;3740;50.700;7.184;2022-08-30T04:54:26;17.40;99.90
7399;DHT22;3740;50.700;7.184;2022-08-30T04:56:52;17.40;99.90
7399;DHT22;3740;50.700;7.184;2022-08-30T04:59:18;17.40;99.90
7399;DHT22;3740;50.700;7.184;2022-08-30T05:01:43;17.40;99.90
7399;DHT22;3740;50.700;7.184;2022-08-30T05:04:09;17.50;99.90
7399;DHT22;3740;50.700;7.184;2022-08-30T05:06:35;17.20;99.90
7399;DHT22;3740;50.700;7.184;2022-08-30T05:09:01;17.30;99.90
7399;DHT22;3740;50.700;7.184;2022-08-30T05:11:27;17.40;99.90
7399;DHT22;3740;50.700;7.184;2022-08-30T05:13:53;17.50;99.90
7399;DHT22;3740;50.700;7.184;2022-08-30T05:16:18;17.50;99.90
7399;DHT22;3740;50.700;7.184;2022-08-30T05:18:46;17.50;99.90
7399;DHT22;3740;50.700;7.184;2022-08-30T05:21:15;17.50;99.90
7399;DHT22;3740;50.700;7.184;2022-08-30T05:23:42;17.50;99.90
7399;DHT22;3740;50.700;7.184;2022-08-30T05:26:13;17.50;99.90
7399;DHT22;3740;50.700;7.184;2022-08-30T05:28:40;17.50;99.90
7399;DHT22;3740;50.700;7.184;2022-08-30T05:31:15;17.40;99.90
7399;DHT22;3740;50.700;7.184;2022-08-30T05:33:42;17.40;99.90
7399;DHT22;3740;50.700;7.184;2022-08-30T05:36:09;17.40;99.90
7399;DHT22;3740;50.700;7.184;2022-08-30T05:38:35;17.50;99.90
7399;DHT22;3740;50.700;7.184;2022-08-30T05:41:01;17.50;99.90
7399;DHT22;3740;50.700;7.184;2022-08-30T05:43:28;17.50;99.90
7399;DHT22;3740;50.700;7.184;2022-08-30T05:46:06;17.50;99.90
7399;DHT22;3740;50.700;7.184;2022-08-30T05:48:32;17.60;99.90
7399;DHT22;3740;50.700;7.184;2022-08-30T05:51:18;17.50;99.90
7399;DHT22;3740;50.700;7.184;2022-08-30T05:53:44;17.60;99.90
7399;DHT22;3740;50.700;7.184;2022-08-30T05:56:15;17.60;99.90
7399;DHT22;3740;50.700;7.184;2022-08-30T05:58:41;17.60;99.90
7399;DHT22;3740;50.700;7.184;2022-08-30T06:01:27;17.60;99.90
7399;DHT22;3740;50.700;7.184;2022-08-30T06:03:54;17.60;99.90
7399;DHT22;3740;50.700;7.184;2022-08-30T06:06:21;17.60;99.90
7399;DHT22;3740;50.700;7.184;2022-08-30T06:08:47;17.60;99.90
7399;DHT22;3740;50.700;7.184;2022-08-30T06:11:15;17.60;99.90
7399;DHT22;3740;50.700;7.184;2022-08-30T06:13:47;17.60;99.90
7399;DHT22;3740;50.700;7.184;2022-08-30T06:16:15;17.60;99.90
7399;DHT22;3740;50.700;7.184;2022-08-30T06:18:41;17.60;99.90
7399;DHT22;3740;50.700;7.184;2022-08-30T06:21:07;17.60;99.90
7399;DHT22;3740;50.700;7.184;2022-08-30T06:23:33;17.70;99.90
7399;DHT22;3740;50.700;7.184;2022-08-30T06:26:04;17.70;99.90
7399;DHT22;3740;50.700;7.184;2022-08-30T06:28:29;17.70;99.90
7399;DHT22;3740;50.700;7.184;2022-08-30T06:30:56;17.70;99.90
7399;DHT22;3740;50.700;7.184;2022-08-30T06:33:23;17.80;99.90
7399;DHT22;3740;50.700;7.184;2022-08-30T06:35:48;17.80;99.90
7399;DHT22;3740;50.700;7.184;2022-08-30T06:38:14;17.80;99.90
7399;DHT22;3740;50.700;7.184;2022-08-30T06:40:39;17.90;99.90
7399;DHT22;3740;50.700;7.184;2022-08-30T06:43:05;17.90;99.90
7399;DHT22;3740;50.700;7.184;2022-08-30T06:45:32;17.90;99.90
7399;DHT22;3740;50.700;7.184;2022-08-30T06:47:58;18.00;99.90
7399;DHT22;3740;50.700;7.184;2022-08-30T06:50:24;18.00;99.90
7399;DHT22;3740;50.700;7.184;2022-08-30T06:52:50;18.10;99.90
7399;DHT22;3740;50.700;7.184;2022-08-30T06:57:45;18.20;99.90
7399;DHT22;3740;50.700;7.184;2022-08-30T07:00:14;18.30;99.90
7399;DHT22;3740;50.700;7.184;2022-08-30T07:02:41;18.30;99.90
7399;DHT22;3740;50.700;7.184;2022-08-30T07:05:08;18.40;99.90
7399;DHT22;3740;50.700;7.184;2022-08-30T07:07:37;18.40;99.90
7399;DHT22;3740;50.700;7.184;2022-08-30T07:10:05;18.10;99.90
7399;DHT22;3740;50.700;7.184;2022-08-30T07:12:32;18.50;99.90
7399;DHT22;3740;50.700;7.184;2022-08-30T07:17:24;18.60;99.90
7399;DHT22;3740;50.700;7.184;2022-08-30T07:20:08;18.60;99.90
7399;DHT22;3740;50.700;7.184;2022-08-30T07:22:34;18.60;99.90
7399;DHT22;3740;50.700;7.184;2022-08-30T07:25:00;18.60;99.90
7399;DHT22;3740;50.700;7.184;2022-08-30T07:27:26;18.60;99.90
7399;DHT22;3740;50.700;7.184;2022-08-30T07:29:52;18.60;99.90
7399;DHT22;3740;50.700;7.184;2022-08-30T07:32:17;18.70;99.90
7399;DHT22;3740;50.700;7.184;2022-08-30T07:34:43;18.80;99.90
7399;DHT22;3740;50.700;7.184;2022-08-30T07:37:09;18.80;99.90
7399;DHT22;3740;50.700;7.184;2022-08-30T07:39:34;18.90;99.90
7399;DHT22;3740;50.700;7.184;2022-08-30T07:42:00;19.00;99.90
7399;DHT22;3740;50.700;7.184;2022-08-30T07:44:27;19.10;99.90
7399;DHT22;3740;50.700;7.184;2022-08-30T07:46:53;19.20;99.90
7399;DHT22;3740;50.700;7.184;2022-08-30T07:49:18;19.20;99.90
7399;DHT22;3740;50.700;7.184;2022-08-30T07:51:45;19.30;99.90
7399;DHT22;3740;50.700;7.184;2022-08-30T07:54:11;19.40;99.90
7399;DHT22;3740;50.700;7.184;2022-08-30T07:56:37;19.40;99.90
7399;DHT22;3740;50.700;7.184;2022-08-30T07:59:02;19.50;99.90
7399;DHT22;3740;50.700;7.184;2022-08-30T08:01:28;19.40;99.90
7399;DHT22;3740;50.700;7.184;2022-08-30T08:03:54;19.50;99.90
7399;DHT22;3740;50.700;7.184;2022-08-30T08:06:21;19.60;99.90
7399;DHT22;3740;50.700;7.184;2022-08-30T08:08:46;19.70;99.90
7399;DHT22;3740;50.700;7.184;2022-08-30T08:11:18;19.80;99.90
7399;DHT22;3740;50.700;7.184;2022-08-30T08:13:45;19.80;99.90
7399;DHT22;3740;50.700;7.184;2022-08-30T08:16:11;19.90;99.90
7399;DHT22;3740;50.700;7.184;2022-08-30T08:18:37;20.00;99.90
7399;DHT22;3740;50.700;7.184;2022-08-30T08:21:03;20.10;99.90
7399;DHT22;3740;50.700;7.184;2022-08-30T08:23:29;20.10;99.90
7399;DHT22;3740;50.700;7.184;2022-08-30T08:25:55;20.20;99.90
7399;DHT22;3740;50.700;7.184;2022-08-30T08:28:21;20.30;99.90
7399;DHT22;3740;50.700;7.184;2022-08-30T08:30:49;20.30;99.90
7399;DHT22;3740;50.700;7.184;2022-08-30T08:33:16;20.40;99.90
7399;DHT22;3740;50.700;7.184;2022-08-30T08:35:42;20.50;99.90
7399;DHT22;3740;50.700;7.184;2022-08-30T08:38:08;20.60;99.90
7399;DHT22;3740;50.700;7.184;2022-08-30T08:43:22;21.00;99.90
7399;DHT22;3740;50.700;7.184;2022-08-30T08:51:04;21.60;99.90
7399;DHT22;3740;50.700;7.184;2022-08-30T08:53:56;21.70;99.90
7399;DHT22;3740;50.700;7.184;2022-08-30T08:56:22;21.90;99.90
7399;DHT22;3740;50.700;7.184;2022-08-30T08:58:52;22.10;99.90
7399;DHT22;3740;50.700;7.184;2022-08-30T09:01:21;22.30;99.90
7399;DHT22;3740;50.700;7.184;2022-08-30T09:03:47;22.40;99.90
7399;DHT22;3740;50.700;7.184;2022-08-30T09:06:42;22.50;99.50
7399;DHT22;3740;50.700;7.184;2022-08-30T09:09:10;22.70;99.10
7399;DHT22;3740;50.700;7.184;2022-08-30T09:11:36;22.80;98.60
7399;DHT22;3740;50.700;7.184;2022-08-30T09:14:05;22.80;97.80
7399;DHT22;3740;50.700;7.184;2022-08-30T09:19:37;22.90;97.60
7399;DHT22;3740;50.700;7.184;2022-08-30T09:25:05;23.10;97.40
7399;DHT22;3740;50.700;7.184;2022-08-30T09:27:51;23.20;96.50
7399;DHT22;3740;50.700;7.184;2022-08-30T09:30:27;23.30;96.10
7399;DHT22;3740;50.700;7.184;2022-08-30T09:33:03;23.30;95.70
7399;DHT22;3740;50.700;7.184;2022-08-30T09:35:43;23.20;95.60
7399;DHT22;3740;50.700;7.184;2022-08-30T09:38:16;23.20;95.20
7399;DHT22;3740;50.700;7.184;2022-08-30T09:40:45;23.30;94.80
7399;DHT22;3740;50.700;7.184;2022-08-30T09:45:43;23.40;94.40
7399;DHT22;3740;50.700;7.184;2022-08-30T09:51:13;23.50;94.20
7399;DHT22;3740;50.700;7.184;2022-08-30T09:53:50;23.50;93.50
7399;DHT22;3740;50.700;7.184;2022-08-30T09:59:44;23.70;92.20
7399;DHT22;3740;50.700;7.184;2022-08-30T10:02:48;23.80;91.90
7399;DHT22;3740;50.700;7.184;2022-08-30T10:08:37;24.10;90.80
7399;DHT22;3740;50.700;7.184;2022-08-30T10:11:41;24.30;90.60
7399;DHT22;3740;50.700;7.184;2022-08-30T10:17:21;24.80;90.00
7399;DHT22;3740;50.700;7.184;2022-08-30T10:20:14;25.10;88.20
7399;DHT22;3740;50.700;7.184;2022-08-30T10:23:04;25.40;88.70
7399;DHT22;3740;50.700;7.184;2022-08-30T10:28:11;26.00;84.90
7399;DHT22;3740;50.700;7.184;2022-08-30T10:30:43;26.30;82.70
7399;DHT22;3740;50.700;7.184;2022-08-30T10:33:15;26.50;81.20
7399;DHT22;3740;50.700;7.184;2022-08-30T10:35:53;27.00;77.60
7399;DHT22;3740;50.700;7.184;2022-08-30T10:38:32;27.20;78.10
7399;DHT22;3740;50.700;7.184;2022-08-30T10:41:21;27.50;78.50
7399;DHT22;3740;50.700;7.184;2022-08-30T10:46:35;27.80;75.00
7399;DHT22;3740;50.700;7.184;2022-08-30T10:49:04;27.90;74.70
7399;DHT22;3740;50.700;7.184;2022-08-30T10:54:47;28.40;73.30
7399;DHT22;3740;50.700;7.184;2022-08-30T10:57:15;29.10;70.00
7399;DHT22;3740;50.700;7.184;2022-08-30T10:59:50;29.90;70.00
7399;DHT22;3740;50.700;7.184;2022-08-30T11:05:44;30.70;66.20
7399;DHT22;3740;50.700;7.184;2022-08-30T11:11:19;32.40;61.20
7399;DHT22;3740;50.700;7.184;2022-08-30T11:13:49;34.40;58.00
7399;DHT22;3740;50.700;7.184;2022-08-30T11:16:17;36.20;54.10
7399;DHT22;3740;50.700;7.184;2022-08-30T11:18:50;37.60;52.10
7399;DHT22;3740;50.700;7.184;2022-08-30T11:31:57;40.30;44.00
7399;DHT22;3740;50.700;7.184;2022-08-30T11:37:30;39.90;42.70
7399;DHT22;3740;50.700;7.184;2022-08-30T11:42:43;40.30;43.60
7399;DHT22;3740;50.700;7.184;2022-08-30T11:47:58;42.20;40.00
7399;DHT22;3740;50.700;7.184;2022-08-30T11:50:30;42.80;40.70
7399;DHT22;3740;50.700;7.184;2022-08-30T11:55:48;42.50;38.60
7399;DHT22;3740;50.700;7.184;2022-08-30T12:07:06;41.80;39.70
7399;DHT22;3740;50.700;7.184;2022-08-30T12:12:03;43.50;37.70
7399;DHT22;3740;50.700;7.184;2022-08-30T12:17:02;44.00;37.70
7399;DHT22;3740;50.700;7.184;2022-08-30T12:19:55;42.70;36.90
7399;DHT22;3740;50.700;7.184;2022-08-30T12:22:21;42.70;37.80
7399;DHT22;3740;50.700;7.184;2022-08-30T12:24:50;42.20;38.40
7399;DHT22;3740;50.700;7.184;2022-08-30T12:27:27;42.20;38.20
7399;DHT22;3740;50.700;7.184;2022-08-30T12:30:14;41.60;37.80
7399;DHT22;3740;50.700;7.184;2022-08-30T12:32:49;42.10;37.60
7399;DHT22;3740;50.700;7.184;2022-08-30T12:35:22;42.10;38.50
7399;DHT22;3740;50.700;7.184;2022-08-30T12:37:58;41.60;38.50
7399;DHT22;3740;50.700;7.184;2022-08-30T12:40:26;41.80;38.40
7399;DHT22;3740;50.700;7.184;2022-08-30T12:42:59;41.20;39.00
7399;DHT22;3740;50.700;7.184;2022-08-30T12:45:31;41.20;38.90
7399;DHT22;3740;50.700;7.184;2022-08-30T12:48:04;40.80;39.30
7399;DHT22;3740;50.700;7.184;2022-08-30T12:50:36;40.70;39.30
7399;DHT22;3740;50.700;7.184;2022-08-30T12:53:06;40.60;39.50
7399;DHT22;3740;50.700;7.184;2022-08-30T12:55:35;39.40;38.80
7399;DHT22;3740;50.700;7.184;2022-08-30T12:58:15;39.40;39.90
7399;DHT22;3740;50.700;7.184;2022-08-30T13:00:43;39.80;39.60
7399;DHT22;3740;50.700;7.184;2022-08-30T13:05:49;40.90;39.10
7399;DHT22;3740;50.700;7.184;2022-08-30T13:10:59;40.10;38.80
7399;DHT22;3740;50.700;7.184;2022-08-30T13:13:44;39.50;40.10
7399;DHT22;3740;50.700;7.184;2022-08-30T13:21:54;37.90;40.40
7399;DHT22;3740;50.700;7.184;2022-08-30T13:24:20;37.50;41.30
7399;DHT22;3740;50.700;7.184;2022-08-30T13:26:47;37.20;41.60
7399;DHT22;3740;50.700;7.184;2022-08-30T13:29:15;37.10;41.80
7399;DHT22;3740;50.700;7.184;2022-08-30T13:31:46;37.00;41.40
7399;DHT22;3740;50.700;7.184;2022-08-30T13:34:12;36.50;41.40
7399;DHT22;3740;50.700;7.184;2022-08-30T13:36:45;36.50;41.50
7399;DHT22;3740;50.700;7.184;2022-08-30T13:39:12;36.80;41.60
7399;DHT22;3740;50.700;7.184;2022-08-30T13:41:38;37.00;41.80
7399;DHT22;3740;50.700;7.184;2022-08-30T13:44:03;37.50;41.70
7399;DHT22;3740;50.700;7.184;2022-08-30T13:46:29;38.00;41.20
7399;DHT22;3740;50.700;7.184;2022-08-30T13:49:01;38.00;40.90
7399;DHT22;3740;50.700;7.184;2022-08-30T13:51:29;38.00;41.70
7399;DHT22;3740;50.700;7.184;2022-08-30T13:53:55;38.00;41.40
7399;DHT22;3740;50.700;7.184;2022-08-30T13:56:23;37.60;41.90
7399;DHT22;3740;50.700;7.184;2022-08-30T13:58:49;36.90;42.10
7399;DHT22;3740;50.700;7.184;2022-08-30T14:01:14;36.70;41.90
7399;DHT22;3740;50.700;7.184;2022-08-30T14:03:40;36.50;42.60
7399;DHT22;3740;50.700;7.184;2022-08-30T14:06:08;36.20;42.80
7399;DHT22;3740;50.700;7.184;2022-08-30T14:08:33;36.00;42.80
7399;DHT22;3740;50.700;7.184;2022-08-30T14:11:02;35.80;42.90
7399;DHT22;3740;50.700;7.184;2022-08-30T14:13:29;35.20;44.10
7399;DHT22;3740;50.700;7.184;2022-08-30T14:15:56;34.50;44.30
7399;DHT22;3740;50.700;7.184;2022-08-30T14:18:25;34.20;44.80
7399;DHT22;3740;50.700;7.184;2022-08-30T14:20:50;34.10;44.80
7399;DHT22;3740;50.700;7.184;2022-08-30T14:23:16;34.00;45.10
7399;DHT22;3740;50.700;7.184;2022-08-30T14:25:41;34.00;44.70
7399;DHT22;3740;50.700;7.184;2022-08-30T14:28:09;33.80;45.10
7399;DHT22;3740;50.700;7.184;2022-08-30T14:30:35;33.70;44.90
7399;DHT22;3740;50.700;7.184;2022-08-30T14:33:00;33.60;45.70
7399;DHT22;3740;50.700;7.184;2022-08-30T14:35:27;33.40;46.40
7399;DHT22;3740;50.700;7.184;2022-08-30T14:37:53;33.20;46.10
7399;DHT22;3740;50.700;7.184;2022-08-30T14:40:19;32.80;46.60
7399;DHT22;3740;50.700;7.184;2022-08-30T14:42:44;33.00;46.50
7399;DHT22;3740;50.700;7.184;2022-08-30T14:45:10;32.80;46.50
7399;DHT22;3740;50.700;7.184;2022-08-30T14:47:36;32.70;46.50
7399;DHT22;3740;50.700;7.184;2022-08-30T14:50:04;32.30;47.20
7399;DHT22;3740;50.700;7.184;2022-08-30T14:52:30;32.00;47.80
7399;DHT22;3740;50.700;7.184;2022-08-30T14:55:00;31.80;47.60
7399;DHT22;3740;50.700;7.184;2022-08-30T14:57:26;31.50;48.40
7399;DHT22;3740;50.700;7.184;2022-08-30T14:59:52;31.50;48.30
7399;DHT22;3740;50.700;7.184;2022-08-30T15:02:22;31.30;49.10
7399;DHT22;3740;50.700;7.184;2022-08-30T15:04:48;31.40;48.70
7399;DHT22;3740;50.700;7.184;2022-08-30T15:07:14;31.40;48.80
7399;DHT22;3740;50.700;7.184;2022-08-30T15:09:41;31.50;49.30
7399;DHT22;3740;50.700;7.184;2022-08-30T15:12:10;31.40;49.20
7399;DHT22;3740;50.700;7.184;2022-08-30T15:14:36;31.30;48.50
7399;DHT22;3740;50.700;7.184;2022-08-30T15:17:01;31.20;48.10
7399;DHT22;3740;50.700;7.184;2022-08-30T15:19:28;31.10;49.20
7399;DHT22;3740;50.700;7.184;2022-08-30T15:21:58;30.90;49.60
7399;DHT22;3740;50.700;7.184;2022-08-30T15:24:24;30.80;48.70
7399;DHT22;3740;50.700;7.184;2022-08-30T15:26:50;30.80;49.30
7399;DHT22;3740;50.700;7.184;2022-08-30T15:29:20;30.60;50.40
7399;DHT22;3740;50.700;7.184;2022-08-30T15:31:46;30.60;49.30
7399;DHT22;3740;50.700;7.184;2022-08-30T15:34:15;30.50;50.40
7399;DHT22;3740;50.700;7.184;2022-08-30T15:36:41;30.30;51.10
7399;DHT22;3740;50.700;7.184;2022-08-30T15:39:09;30.00;50.40
7399;DHT22;3740;50.700;7.184;2022-08-30T15:41:35;29.80;51.40
7399;DHT22;3740;50.700;7.184;2022-08-30T15:44:01;29.60;50.50
7399;DHT22;3740;50.700;7.184;2022-08-30T15:46:32;29.50;51.10
7399;DHT22;3740;50.700;7.184;2022-08-30T15:51:30;29.50;52.10
7399;DHT22;3740;50.700;7.184;2022-08-30T15:53:56;29.40;52.20
7399;DHT22;3740;50.700;7.184;2022-08-30T15:56:23;29.40;52.30
7399;DHT22;3740;50.700;7.184;2022-08-30T15:58:49;29.40;52.20
7399;DHT22;3740;50.700;7.184;2022-08-30T16:01:15;29.30;52.00
7399;DHT22;3740;50.700;7.184;2022-08-30T16:03:41;29.20;51.80
7399;DHT22;3740;50.700;7.184;2022-08-30T16:06:15;29.30;52.30
7399;DHT22;3740;50.700;7.184;2022-08-30T16:08:42;29.30;51.60
7399;DHT22;3740;50.700;7.184;2022-08-30T16:11:09;29.40;52.90
7399;DHT22;3740;50.700;7.184;2022-08-30T16:13:35;29.30;53.00
7399;DHT22;3740;50.700;7.184;2022-08-30T16:16:02;29.30;52.80
7399;DHT22;3740;50.700;7.184;2022-08-30T16:18:30;29.20;53.00
7399;DHT22;3740;50.700;7.184;2022-08-30T16:21:05;29.20;52.60
7399;DHT22;3740;50.700;7.184;2022-08-30T16:23:32;29.10;52.60
7399;DHT22;3740;50.700;7.184;2022-08-30T16:25:57;29.10;52.30
7399;DHT22;3740;50.700;7.184;2022-08-30T16:28:24;29.00;53.10
7399;DHT22;3740;50.700;7.184;2022-08-30T16:30:49;28.90;53.70
7399;DHT22;3740;50.700;7.184;2022-08-30T16:33:15;28.80;53.90
7399;DHT22;3740;50.700;7.184;2022-08-30T16:35:40;28.70;53.20
7399;DHT22;3740;50.700;7.184;2022-08-30T16:38:06;28.60;53.90
7399;DHT22;3740;50.700;7.184;2022-08-30T16:40:38;28.60;54.30
7399;DHT22;3740;50.700;7.184;2022-08-30T16:43:05;28.40;53.60
7399;DHT22;3740;50.700;7.184;2022-08-30T16:45:30;28.30;54.40
7399;DHT22;3740;50.700;7.184;2022-08-30T16:47:56;28.40;54.10
7399;DHT22;3740;50.700;7.184;2022-08-30T16:50:24;28.30;54.60
7399;DHT22;3740;50.700;7.184;2022-08-30T16:52:49;28.20;54.20
7399;DHT22;3740;50.700;7.184;2022-08-30T16:55:16;28.20;53.20
7399;DHT22;3740;50.700;7.184;2022-08-30T16:57:42;28.20;54.70
7399;DHT22;3740;50.700;7.184;2022-08-30T17:00:08;28.10;55.50
7399;DHT22;3740;50.700;7.184;2022-08-30T17:02:35;28.10;54.70
7399;DHT22;3740;50.700;7.184;2022-08-30T17:05:01;28.00;55.00
7399;DHT22;3740;50.700;7.184;2022-08-30T17:07:28;28.00;55.00
7399;DHT22;3740;50.700;7.184;2022-08-30T17:09:54;27.90;55.70
7399;DHT22;3740;50.700;7.184;2022-08-30T17:12:22;27.80;56.00
7399;DHT22;3740;50.700;7.184;2022-08-30T17:14:48;27.90;54.90
7399;DHT22;3740;50.700;7.184;2022-08-30T17:17:14;27.90;55.50
7399;DHT22;3740;50.700;7.184;2022-08-30T17:19:41;27.80;56.10
7399;DHT22;3740;50.700;7.184;2022-08-30T17:22:11;27.60;56.30
7399;DHT22;3740;50.700;7.184;2022-08-30T17:24:37;27.60;56.90
7399;DHT22;3740;50.700;7.184;2022-08-30T17:27:03;27.50;57.30
7399;DHT22;3740;50.700;7.184;2022-08-30T17:29:29;27.40;57.40
7399;DHT22;3740;50.700;7.184;2022-08-30T17:31:55;27.40;57.40
7399;DHT22;3740;50.700;7.184;2022-08-30T17:34:22;27.30;58.00
7399;DHT22;3740;50.700;7.184;2022-08-30T17:36:49;27.20;58.30
7399;DHT22;3740;50.700;7.184;2022-08-30T17:39:15;27.10;58.20
7399;DHT22;3740;50.700;7.184;2022-08-30T17:41:42;27.00;58.50
7399;DHT22;3740;50.700;7.184;2022-08-30T17:44:10;27.00;59.00
7399;DHT22;3740;50.700;7.184;2022-08-30T17:46:36;26.80;59.80
7399;DHT22;3740;50.700;7.184;2022-08-30T17:49:02;26.80;58.90
7399;DHT22;3740;50.700;7.184;2022-08-30T17:51:28;26.60;59.00